Atlantic - Newfoundland: Past 24 Hour Conditions

 

Bonavista

05:30 PM NST 24 November 2014
This table is a summary of hourly weather conditions for the past 24 hours.
Date / Time
(NST)
Wind(knots) Conditions Visibility(km) Pressure(kPa) Air tempC) Relative humidity(%) Dew pointC) Wind Chill
24 November 2014
17:30 S 5 N/A N/A 102.9 -3 61 -9 -6
16:30 SW 7 N/A N/A 102.9 -1 49 -10 -5
15:30 WSW 5 N/A N/A 102.9 0 49 -10 -4
14:30 W 11 N/A N/A 102.8 0 52 -9 -6
13:30 WNW 10 gust 15 N/A N/A 102.7 -1 54 -9 -6
12:30 WNW 12 N/A N/A 102.7 -1 55 -9 -6
11:30 WNW 16 N/A N/A 102.6 -1 59 -8 -8
10:30 NW 14 gust 19 N/A N/A 102.6 -1 64 -7 -8
9:30 WNW 19 gust 24 N/A N/A 102.6 -2 62 -8 -10
8:30 WNW 22 gust 27 N/A N/A 102.6 -2 62 -9 -10
7:30 WNW 22 gust 27 N/A N/A 102.4 -2 67 -8 -11
6:30 WNW 26 gust 31 N/A N/A 102.3 -2 69 -7 -11
5:30 WNW 24 N/A N/A 102.1 -2 69 -7 -10
4:30 W 21 gust 30 N/A N/A 102.0 -2 66 -7 -9
3:30 W 24 N/A N/A 101.9 -1 64 -7 -10
2:30 WNW 24 N/A N/A 101.8 -1 66 -7 -9
1:30 WNW 21 N/A N/A 101.7 -1 68 -6 -8
0:30 WNW 25 N/A N/A 101.5 -1 67 -6 -9
23 November 2014
23:30 WNW 23 gust 29 N/A N/A 101.5 0 66 -6 -8
22:30 WNW 30 N/A N/A 101.4 1 66 -5 *
21:30 WNW 29 N/A N/A 101.3 1 63 -6 *
20:30 WNW 30 gust 38 N/A N/A 101.1 1 68 -4 *
19:30 WNW 28 gust 35 N/A N/A 101.0 3 70 -3 *
18:30 W 26 gust 35 N/A N/A 100.8 3 73 -1 *
17:30 WSW 28 gust 33 N/A N/A 100.7 3 71 -2 *
 
Map of Atlantic - Newfoundland marine weather areas Southwestern Grand Banks - 44138 Banquereau - 44139 Tail of the Bank - 44140 Nickerson Bank - 44251 Northeast Burgeo Bank - 44255 Blanc-Sablon Airport Cap Whittle Chevery Natashquan Airport Heath Point Miscou Island Grand Étang Ingonish Beach North Mountain St.Paul Island J.A. Douglas McCurdy Sydney Airport Charlottetown Airport East Point North Cape Argentia Bonavista Burgeo Cape Race Corner Brook Daniel's Harbour Englee Ferolle Point La Scie Port aux Basques Rocky Harbour Sagona Island St. Anthony Airport St. John's Int'l Airport St. Lawrence Stephenville Airport Twillingate Winterland Wreckhouse Cartwright Airport Mary's Harbour Grates Cove Pool's Island Marticot Island Long Pond Îles de la Madeleine Airport
Legend: buoyBuoy land stationLand Station